createdAt,value
2018-12-06T00:02:15.008Z,11.20
2018-12-06T00:04:41.653Z,12.37
2018-12-06T00:07:08.417Z,16.87
2018-12-06T00:09:35.105Z,13.72
2018-12-06T00:12:01.806Z,9.63
2018-12-06T00:14:28.480Z,16.30
2018-12-06T00:16:55.192Z,10.20
2018-12-06T00:19:22.168Z,11.22
2018-12-06T00:21:48.852Z,12.88
2018-12-06T00:24:15.531Z,15.23
2018-12-06T00:26:42.186Z,14.10
2018-12-06T00:29:08.868Z,14.20
2018-12-06T00:31:35.509Z,14.07
2018-12-06T00:34:10.980Z,11.03
2018-12-06T00:36:37.672Z,11.78
2018-12-06T00:39:05.091Z,16.00
2018-12-06T00:41:31.773Z,16.37
2018-12-06T00:43:58.417Z,14.43
2018-12-06T00:46:25.110Z,10.80
2018-12-06T00:48:51.749Z,12.78
2018-12-06T00:51:18.432Z,13.85
2018-12-06T00:53:45.080Z,10.85
2018-12-06T00:56:11.747Z,11.75
2018-12-06T00:58:38.385Z,12.68
2018-12-06T01:01:05.057Z,16.55
2018-12-06T01:03:31.712Z,14.25
2018-12-06T01:05:58.392Z,12.07
2018-12-06T01:08:25.173Z,13.80
2018-12-06T01:10:51.955Z,13.72
2018-12-06T01:13:18.696Z,14.58
2018-12-06T01:15:52.380Z,13.35
2018-12-06T01:18:25.976Z,13.00
2018-12-06T01:20:52.649Z,13.15
2018-12-06T01:23:19.330Z,10.30
2018-12-06T01:25:45.969Z,17.23
2018-12-06T01:28:12.643Z,18.32
2018-12-06T01:30:39.433Z,12.13
2018-12-06T01:33:06.569Z,11.60
2018-12-06T01:35:33.212Z,14.07
2018-12-06T01:37:59.891Z,10.65
2018-12-06T01:40:26.529Z,10.78
2018-12-06T01:42:53.259Z,14.95
2018-12-06T01:45:20.013Z,22.10
2018-12-06T01:47:46.692Z,24.20
2018-12-06T01:50:13.344Z,22.15
2018-12-06T01:52:40.033Z,25.90
2018-12-06T01:55:06.732Z,16.23
2018-12-06T01:57:33.409Z,14.98
2018-12-06T02:00:00.076Z,12.65
2018-12-06T02:02:26.720Z,17.23
2018-12-06T02:04:53.406Z,17.98
2018-12-06T02:07:20.045Z,20.97
2018-12-06T02:09:46.720Z,16.05
2018-12-06T02:12:13.445Z,17.40
2018-12-06T02:14:40.704Z,21.55
2018-12-06T02:17:07.506Z,21.42
2018-12-06T02:19:34.270Z,15.08
2018-12-06T02:22:00.918Z,18.15
2018-12-06T02:24:27.633Z,13.68
2018-12-06T02:26:54.288Z,14.05
2018-12-06T02:29:20.956Z,13.60
2018-12-06T02:31:47.941Z,15.00
2018-12-06T02:34:14.599Z,14.83
2018-12-06T02:36:41.306Z,12.35
2018-12-06T02:39:08.033Z,17.37
2018-12-06T02:41:34.728Z,10.45
2018-12-06T02:44:01.448Z,16.50
2018-12-06T02:46:35.166Z,14.63
2018-12-06T02:49:01.809Z,13.35
2018-12-06T02:51:28.535Z,17.10
2018-12-06T02:53:55.176Z,15.83
2018-12-06T02:56:21.848Z,14.80
2018-12-06T02:58:48.649Z,14.53
2018-12-06T03:01:15.345Z,13.13
2018-12-06T03:03:43.279Z,14.38
2018-12-06T03:06:09.960Z,12.90
2018-12-06T03:08:36.605Z,13.75
2018-12-06T03:11:03.296Z,13.18
2018-12-06T03:13:29.956Z,14.05
2018-12-06T03:15:56.718Z,15.08
2018-12-06T03:18:23.561Z,15.48
2018-12-06T03:20:50.214Z,13.10
2018-12-06T03:23:16.905Z,16.80
2018-12-06T03:25:43.697Z,15.80
2018-12-06T03:28:10.519Z,12.98
2018-12-06T03:30:37.165Z,14.25
2018-12-06T03:33:03.853Z,13.70
2018-12-06T03:35:30.527Z,12.35
2018-12-06T03:37:57.217Z,11.90
2018-12-06T03:40:23.866Z,12.05
2018-12-06T03:42:50.542Z,16.32
2018-12-06T03:45:17.193Z,15.43
2018-12-06T03:47:43.900Z,13.83
2018-12-06T03:50:10.608Z,12.07
2018-12-06T03:52:37.298Z,13.85
2018-12-06T03:55:04.168Z,13.90
2018-12-06T03:57:30.808Z,11.55
2018-12-06T03:59:57.484Z,11.33
2018-12-06T04:02:24.136Z,11.38
2018-12-06T04:04:50.818Z,13.15
2018-12-06T04:07:17.468Z,11.65
2018-12-06T04:09:44.163Z,14.03
2018-12-06T04:12:10.831Z,19.92
2018-12-06T04:14:37.565Z,32.08
2018-12-06T04:17:04.218Z,25.52
2018-12-06T04:19:37.784Z,10.55
2018-12-06T04:22:04.448Z,13.40
2018-12-06T04:24:31.138Z,12.53
2018-12-06T04:26:57.797Z,13.00
2018-12-06T04:29:24.476Z,12.20
2018-12-06T04:31:51.216Z,13.53
2018-12-06T04:34:17.889Z,11.75
2018-12-06T04:36:44.577Z,14.50
2018-12-06T04:39:11.237Z,11.33
2018-12-06T04:41:37.922Z,13.88
2018-12-06T04:44:04.573Z,15.00
2018-12-06T04:46:31.246Z,15.45
2018-12-06T04:48:57.896Z,18.80
2018-12-06T04:51:24.585Z,10.13
2018-12-06T04:53:58.405Z,14.50
2018-12-06T04:56:25.183Z,12.33
2018-12-06T04:58:51.929Z,12.90
2018-12-06T05:01:18.611Z,10.30
2018-12-06T05:03:45.264Z,9.68
2018-12-06T05:06:12.111Z,8.65
2018-12-06T05:08:38.765Z,12.50
2018-12-06T05:11:12.724Z,9.80
2018-12-06T05:13:39.367Z,10.63
2018-12-06T05:16:06.049Z,9.40
2018-12-06T05:18:32.773Z,10.10
2018-12-06T05:20:59.533Z,8.45
2018-12-06T05:23:26.305Z,9.08
2018-12-06T05:25:53.033Z,10.53
2018-12-06T05:28:19.749Z,8.00
2018-12-06T05:30:46.389Z,10.28
2018-12-06T05:33:13.081Z,6.65
2018-12-06T05:35:39.729Z,9.78
2018-12-06T05:38:06.415Z,6.65
2018-12-06T05:40:33.100Z,11.25
2018-12-06T05:42:59.734Z,5.40
2018-12-06T05:45:26.408Z,5.45
2018-12-06T05:47:53.065Z,5.00
2018-12-06T05:50:19.749Z,7.45
2018-12-06T05:52:46.385Z,7.28
2018-12-06T05:55:13.076Z,6.65
2018-12-06T05:57:39.711Z,11.20
2018-12-06T06:00:06.917Z,8.88
2018-12-06T06:02:34.036Z,7.92
2018-12-06T06:05:01.332Z,7.92
2018-12-06T06:07:28.425Z,7.85
2018-12-06T06:09:55.261Z,13.35
2018-12-06T06:12:22.076Z,7.83
2018-12-06T06:14:48.908Z,7.65
2018-12-06T06:17:15.800Z,12.40
2018-12-06T06:19:42.599Z,11.45
2018-12-06T06:22:09.989Z,10.45
2018-12-06T06:24:36.816Z,8.90
2018-12-06T06:27:03.798Z,14.05
2018-12-06T06:29:30.638Z,10.05
2018-12-06T06:31:57.523Z,8.48
2018-12-06T06:34:24.350Z,8.48
2018-12-06T06:36:51.210Z,7.67
2018-12-06T06:39:18.073Z,6.78
2018-12-06T06:41:44.912Z,4.58
2018-12-06T06:44:11.780Z,6.83
2018-12-06T06:46:38.451Z,7.10
2018-12-06T06:49:05.139Z,6.42
2018-12-06T06:51:31.779Z,15.25
2018-12-06T06:53:58.454Z,9.75
2018-12-06T06:56:25.106Z,11.18
2018-12-06T06:58:51.797Z,11.30
2018-12-06T07:01:18.445Z,12.28
2018-12-06T07:03:45.130Z,12.70
2018-12-06T07:06:12.406Z,11.45
2018-12-06T07:08:39.177Z,8.08
2018-12-06T07:11:05.834Z,10.55
2018-12-06T07:13:32.519Z,6.20
2018-12-06T07:15:59.470Z,10.55
2018-12-06T07:18:26.142Z,7.67
2018-12-06T07:20:52.814Z,10.00
2018-12-06T07:23:19.506Z,11.25
2018-12-06T07:25:46.695Z,9.03
2018-12-06T07:28:13.536Z,7.70
2018-12-06T07:30:40.266Z,9.13
2018-12-06T07:33:06.927Z,12.00
2018-12-06T07:35:33.612Z,13.22
2018-12-06T07:38:00.264Z,15.53
2018-12-06T07:40:33.949Z,8.33
2018-12-06T07:43:00.619Z,20.68
2018-12-06T07:45:27.361Z,8.23
2018-12-06T07:47:54.051Z,7.58
2018-12-06T07:50:20.753Z,10.65
2018-12-06T07:52:47.445Z,11.93
2018-12-06T07:55:14.141Z,10.35
2018-12-06T07:57:40.812Z,15.30
2018-12-06T08:00:08.337Z,9.68
2018-12-06T08:02:35.001Z,9.63
2018-12-06T08:05:01.688Z,9.20
2018-12-06T08:07:28.365Z,10.23
2018-12-06T08:09:55.005Z,11.43
2018-12-06T08:12:21.708Z,7.40
2018-12-06T08:14:48.349Z,7.83
2018-12-06T08:17:15.028Z,7.97
2018-12-06T08:19:41.673Z,8.38
2018-12-06T08:22:08.358Z,5.90
2018-12-06T08:24:35.012Z,8.15
2018-12-06T08:27:01.701Z,6.80
2018-12-06T08:29:35.297Z,7.92
2018-12-06T08:32:01.985Z,7.20
2018-12-06T08:34:28.628Z,7.10
2018-12-06T08:36:55.308Z,5.45
2018-12-06T08:39:21.969Z,6.28
2018-12-06T08:41:48.665Z,9.25
2018-12-06T08:44:21.328Z,7.05
2018-12-06T08:46:44.045Z,7.05
2018-12-06T08:49:10.720Z,6.22
2018-12-06T08:51:37.905Z,6.22
2018-12-06T08:54:04.632Z,5.92
2018-12-06T08:56:31.277Z,6.03
2018-12-06T08:58:57.963Z,7.58
2018-12-06T09:01:24.612Z,6.55
2018-12-06T09:03:51.300Z,6.53
2018-12-06T09:06:17.951Z,6.60
2018-12-06T09:08:44.635Z,6.95
2018-12-06T09:11:11.296Z,7.42
2018-12-06T09:13:38.699Z,7.95
2018-12-06T09:16:05.687Z,9.50
2018-12-06T09:18:32.373Z,6.37
2018-12-06T09:20:59.034Z,5.75
2018-12-06T09:23:25.729Z,5.30
2018-12-06T09:25:52.381Z,6.33
2018-12-06T09:28:19.062Z,8.68
2018-12-06T09:30:45.974Z,5.03
2018-12-06T09:33:12.694Z,4.80
2018-12-06T09:35:40.679Z,7.55
2018-12-06T09:38:07.509Z,3.92
2018-12-06T09:40:34.236Z,4.28
2018-12-06T09:43:00.881Z,5.87
2018-12-06T09:45:27.556Z,4.15
2018-12-06T09:47:54.208Z,10.18
2018-12-06T09:50:20.898Z,5.40
2018-12-06T09:52:47.550Z,4.60
2018-12-06T09:55:14.233Z,4.60
2018-12-06T09:57:40.892Z,5.30
2018-12-06T10:00:09.657Z,4.33
2018-12-06T10:02:36.305Z,7.50
2018-12-06T10:05:03.889Z,6.15
2018-12-06T10:07:30.559Z,4.33
2018-12-06T10:09:57.253Z,5.25
2018-12-06T10:12:23.909Z,5.47
2018-12-06T10:14:50.585Z,5.87
2018-12-06T10:17:17.282Z,5.37
2018-12-06T10:19:43.928Z,8.98
2018-12-06T10:22:10.644Z,6.95
2018-12-06T10:24:37.428Z,4.92
2018-12-06T10:27:04.256Z,9.25
2018-12-06T10:29:30.944Z,5.97
2018-12-06T10:31:57.687Z,4.90
2018-12-06T10:34:24.418Z,5.12
2018-12-06T10:36:51.100Z,5.35
2018-12-06T10:39:17.744Z,4.58
2018-12-06T10:41:44.428Z,6.35
2018-12-06T10:44:15.157Z,7.25
2018-12-06T10:46:41.841Z,5.53
2018-12-06T10:49:08.541Z,7.62
2018-12-06T10:51:40.488Z,5.17
2018-12-06T10:54:07.555Z,9.83
2018-12-06T10:56:34.653Z,4.65
2018-12-06T10:59:01.340Z,4.87
2018-12-06T11:01:30.989Z,4.92
2018-12-06T11:04:00.766Z,9.60
2018-12-06T11:06:27.416Z,5.80
2018-12-06T11:08:54.102Z,6.17
2018-12-06T11:11:20.817Z,4.95
2018-12-06T11:13:47.516Z,7.22
2018-12-06T11:16:14.312Z,9.65
2018-12-06T11:18:40.988Z,9.15
2018-12-06T11:21:07.636Z,4.62
2018-12-06T11:23:34.300Z,5.78
2018-12-06T11:26:08.101Z,5.90
2018-12-06T11:28:34.788Z,8.00
2018-12-06T11:31:01.488Z,6.62
2018-12-06T11:33:28.157Z,7.65
2018-12-06T11:35:54.876Z,5.97
2018-12-06T11:38:21.519Z,5.40
2018-12-06T11:40:48.200Z,6.53
2018-12-06T11:43:14.839Z,5.42
2018-12-06T11:45:41.540Z,6.30
2018-12-06T11:48:08.253Z,7.53
2018-12-06T11:50:34.924Z,8.48
2018-12-06T11:53:01.614Z,7.85
2018-12-06T11:55:28.358Z,6.42
2018-12-06T11:57:55.081Z,5.72
2018-12-06T12:00:21.744Z,5.40
2018-12-06T12:02:48.440Z,5.70
2018-12-06T12:05:15.128Z,6.97
2018-12-06T12:07:41.770Z,5.92
2018-12-06T12:10:08.469Z,6.58
2018-12-06T12:12:35.113Z,5.90
2018-12-06T12:15:01.810Z,5.87
2018-12-06T12:17:28.473Z,13.18
2018-12-06T12:19:55.148Z,7.50
2018-12-06T12:22:21.797Z,7.12
2018-12-06T12:24:48.468Z,6.55
2018-12-06T12:27:15.132Z,6.20
2018-12-06T12:29:41.825Z,5.47
2018-12-06T12:32:08.476Z,5.25
2018-12-06T12:34:35.225Z,8.48
2018-12-06T12:37:01.976Z,5.53
2018-12-06T12:39:28.692Z,5.22
2018-12-06T12:41:55.453Z,4.62
2018-12-06T12:44:22.097Z,5.70
2018-12-06T12:46:48.825Z,6.85
2018-12-06T12:49:15.477Z,5.45
2018-12-06T12:51:42.384Z,5.37
2018-12-06T12:54:09.060Z,4.25
2018-12-06T12:56:35.732Z,4.40
2018-12-06T12:59:02.409Z,4.03
2018-12-06T13:01:29.103Z,3.85
2018-12-06T13:03:55.776Z,3.70
2018-12-06T13:06:22.486Z,3.80
2018-12-06T13:08:49.140Z,3.53
2018-12-06T13:11:15.834Z,3.50
2018-12-06T13:13:42.559Z,3.47
2018-12-06T13:16:09.220Z,3.12
2018-12-06T13:18:35.905Z,3.45
2018-12-06T13:21:02.696Z,2.93
2018-12-06T13:23:36.629Z,4.58
2018-12-06T13:26:03.495Z,2.60
2018-12-06T13:28:30.173Z,2.30
2018-12-06T13:30:56.841Z,2.03
2018-12-06T13:33:23.552Z,2.30
2018-12-06T13:35:50.209Z,2.13
2018-12-06T13:38:16.892Z,2.23
2018-12-06T13:40:43.553Z,1.80
2018-12-06T13:43:10.300Z,2.90
2018-12-06T13:45:36.957Z,2.60
2018-12-06T13:48:03.816Z,2.60
2018-12-06T13:50:30.482Z,2.87
2018-12-06T13:52:57.181Z,3.22
2018-12-06T13:55:23.908Z,4.45
2018-12-06T13:57:50.560Z,5.20
2018-12-06T14:00:17.270Z,5.00
2018-12-06T14:02:43.921Z,18.40
2018-12-06T14:05:10.629Z,24.55
2018-12-06T14:07:37.288Z,13.95
2018-12-06T14:10:04.146Z,27.42
2018-12-06T14:12:31.121Z,8.38
2018-12-06T14:14:57.809Z,5.67
2018-12-06T14:17:31.747Z,3.42
2018-12-06T14:19:58.452Z,3.72
2018-12-06T14:22:25.136Z,2.27
2018-12-06T14:24:51.786Z,2.08
2018-12-06T14:27:18.464Z,2.55
2018-12-06T14:29:45.153Z,1.87
2018-12-06T14:32:11.804Z,4.83
2018-12-06T14:34:38.505Z,4.00
2018-12-06T14:37:05.161Z,2.87
2018-12-06T14:39:31.858Z,2.35
2018-12-06T14:41:58.507Z,6.70
2018-12-06T14:44:25.236Z,2.37
2018-12-06T14:46:52.122Z,2.25
2018-12-06T14:49:19.626Z,2.47
2018-12-06T14:51:46.348Z,2.55
2018-12-06T14:54:13.036Z,2.33
2018-12-06T14:56:39.680Z,3.65
2018-12-06T14:59:06.380Z,2.45
2018-12-06T15:01:33.142Z,3.72
2018-12-06T15:03:59.913Z,3.33
2018-12-06T15:06:26.662Z,2.85
2018-12-06T15:08:53.304Z,1.90
2018-12-06T15:11:19.988Z,4.60
2018-12-06T15:13:46.636Z,2.55
2018-12-06T15:16:13.369Z,2.00
2018-12-06T15:18:40.024Z,2.70
2018-12-06T15:21:06.720Z,2.87
2018-12-06T15:23:33.373Z,6.92
2018-12-06T15:26:00.056Z,2.17
2018-12-06T15:28:26.704Z,2.30
2018-12-06T15:30:53.401Z,3.00
2018-12-06T15:33:20.064Z,2.00
2018-12-06T15:35:53.840Z,4.03
2018-12-06T15:38:20.501Z,2.37
2018-12-06T15:40:47.208Z,5.42
2018-12-06T15:43:13.896Z,2.40
2018-12-06T15:45:40.611Z,2.58
2018-12-06T15:48:07.314Z,3.83
2018-12-06T15:50:33.977Z,1.75
2018-12-06T15:53:00.660Z,2.10
2018-12-06T15:55:27.330Z,3.22
2018-12-06T15:57:54.196Z,2.98
2018-12-06T16:00:20.849Z,2.40
2018-12-06T16:02:47.520Z,5.90
2018-12-06T16:05:14.304Z,2.92
2018-12-06T16:07:41.013Z,2.47
2018-12-06T16:10:09.241Z,2.60
2018-12-06T16:12:35.925Z,4.37
2018-12-06T16:15:04.265Z,4.12
2018-12-06T16:17:30.950Z,11.12
2018-12-06T16:19:57.600Z,16.97
2018-12-06T16:22:24.277Z,13.28
2018-12-06T16:24:50.921Z,32.10
2018-12-06T16:27:17.624Z,11.12
2018-12-06T16:29:51.393Z,2.92
2018-12-06T16:32:12.996Z,8.53
2018-12-06T16:34:39.692Z,2.40
2018-12-06T16:37:06.348Z,2.08
2018-12-06T16:39:33.040Z,4.15
2018-12-06T16:41:59.692Z,7.05
2018-12-06T16:44:26.431Z,2.10
2018-12-06T16:46:53.080Z,5.12
2018-12-06T16:49:19.774Z,2.65
2018-12-06T16:51:46.449Z,2.15
2018-12-06T16:54:13.137Z,2.42
2018-12-06T16:56:39.783Z,2.40
2018-12-06T16:59:06.486Z,2.50
2018-12-06T17:01:33.416Z,3.62
2018-12-06T17:04:00.101Z,2.17
2018-12-06T17:06:26.841Z,3.37
2018-12-06T17:08:53.497Z,2.15
2018-12-06T17:11:20.176Z,2.40
2018-12-06T17:13:46.825Z,2.12
2018-12-06T17:16:13.477Z,1.80
2018-12-06T17:18:40.972Z,2.12
2018-12-06T17:21:07.625Z,1.57
2018-12-06T17:23:34.653Z,2.87
2018-12-06T17:26:01.429Z,1.70
2018-12-06T17:28:28.129Z,1.85
2018-12-06T17:30:54.794Z,1.92
2018-12-06T17:33:21.481Z,2.08
2018-12-06T17:35:48.140Z,2.85
2018-12-06T17:38:14.826Z,2.25
2018-12-06T17:40:41.480Z,1.50
2018-12-06T17:43:09.105Z,3.47
2018-12-06T17:45:35.817Z,1.67
2018-12-06T17:48:02.534Z,1.82
2018-12-06T17:50:29.211Z,2.10
2018-12-06T17:52:55.909Z,1.75
2018-12-06T17:55:22.625Z,2.05
2018-12-06T17:57:49.273Z,2.33
2018-12-06T18:00:15.969Z,3.00
2018-12-06T18:02:42.729Z,1.92
2018-12-06T18:05:09.464Z,2.10
2018-12-06T18:07:36.156Z,1.70
2018-12-06T18:10:04.133Z,2.17
2018-12-06T18:12:37.628Z,2.10
2018-12-06T18:15:05.000Z,3.35
2018-12-06T18:17:31.688Z,1.90
2018-12-06T18:19:58.341Z,2.37
2018-12-06T18:22:25.032Z,2.42
2018-12-06T18:24:51.700Z,2.00
2018-12-06T18:27:18.399Z,2.00
2018-12-06T18:29:45.084Z,1.70
2018-12-06T18:32:11.763Z,3.52
2018-12-06T18:34:38.414Z,2.30
2018-12-06T18:37:05.118Z,1.80
2018-12-06T18:39:31.782Z,2.12
2018-12-06T18:41:58.473Z,1.90
2018-12-06T18:44:25.172Z,2.90
2018-12-06T18:46:51.896Z,2.50
2018-12-06T18:49:18.564Z,2.27
2018-12-06T18:51:45.223Z,2.37
2018-12-06T18:54:11.913Z,2.10
2018-12-06T18:56:38.569Z,2.60
2018-12-06T18:59:05.264Z,2.20
2018-12-06T19:01:31.921Z,2.55
2018-12-06T19:03:59.000Z,3.58
2018-12-06T19:06:25.656Z,3.08
2018-12-06T19:08:52.341Z,2.90
2018-12-06T19:11:18.996Z,2.70
2018-12-06T19:13:45.685Z,4.40
2018-12-06T19:16:12.353Z,2.70
2018-12-06T19:18:39.032Z,2.92
2018-12-06T19:21:05.688Z,2.42
2018-12-06T19:23:32.380Z,2.62
2018-12-06T19:25:59.108Z,2.25
2018-12-06T19:28:25.773Z,2.65
2018-12-06T19:30:52.481Z,2.45
2018-12-06T19:33:19.157Z,2.40
2018-12-06T19:35:46.122Z,2.67
2018-12-06T19:38:13.784Z,2.50
2018-12-06T19:40:40.460Z,2.58
2018-12-06T19:43:07.096Z,2.67
2018-12-06T19:45:33.864Z,3.85
2018-12-06T19:48:00.590Z,2.58
2018-12-06T19:50:27.604Z,5.95
2018-12-06T19:52:54.261Z,9.70
2018-12-06T19:55:21.009Z,9.70
2018-12-06T19:57:47.661Z,8.73
2018-12-06T20:00:14.365Z,24.92
2018-12-06T20:02:41.016Z,29.37
2018-12-06T20:05:08.196Z,17.00
2018-12-06T20:07:36.239Z,13.53
2018-12-06T20:10:05.074Z,3.10
2018-12-06T20:12:31.968Z,2.50
2018-12-06T20:14:59.675Z,2.90
2018-12-06T20:17:26.627Z,2.45
2018-12-06T20:19:53.482Z,2.10
2018-12-06T20:22:28.060Z,4.15
2018-12-06T20:24:55.301Z,3.17
2018-12-06T20:27:22.999Z,2.40
2018-12-06T20:29:50.491Z,2.70
2018-12-06T20:32:17.224Z,2.02
2018-12-06T20:34:44.724Z,3.80
2018-12-06T20:37:11.425Z,1.75
2018-12-06T20:39:38.073Z,1.95
2018-12-06T20:42:06.085Z,2.35
2018-12-06T20:44:32.784Z,2.10
2018-12-06T20:47:00.659Z,2.50
2018-12-06T20:49:27.354Z,3.10
2018-12-06T20:51:54.154Z,2.00
2018-12-06T20:54:20.804Z,1.82
2018-12-06T20:56:47.496Z,6.37
2018-12-06T20:59:14.278Z,2.40
2018-12-06T21:01:42.268Z,2.05
2018-12-06T21:04:15.908Z,1.85
2018-12-06T21:06:43.154Z,2.27
2018-12-06T21:09:10.317Z,2.60
2018-12-06T21:11:41.567Z,2.27
2018-12-06T21:14:08.949Z,1.60
2018-12-06T21:16:36.550Z,1.70
2018-12-06T21:19:03.526Z,1.70
2018-12-06T21:21:30.205Z,2.37
2018-12-06T21:23:57.336Z,2.83
2018-12-06T21:26:24.029Z,2.15
2018-12-06T21:28:50.708Z,1.60
2018-12-06T21:31:17.349Z,1.50
2018-12-06T21:33:44.036Z,1.70
2018-12-06T21:36:10.741Z,1.60
2018-12-06T21:38:37.481Z,1.60
2018-12-06T21:41:04.193Z,2.35
2018-12-06T21:43:30.885Z,2.15
2018-12-06T21:45:57.571Z,1.62
2018-12-06T21:48:31.384Z,2.30
2018-12-06T21:50:58.106Z,2.25
2018-12-06T21:53:24.915Z,1.90
2018-12-06T21:55:51.674Z,1.70
2018-12-06T21:58:18.352Z,2.05
2018-12-06T22:00:45.003Z,3.75
2018-12-06T22:03:11.701Z,2.60
2018-12-06T22:05:38.476Z,2.10
2018-12-06T22:08:12.115Z,2.02
2018-12-06T22:10:38.809Z,3.67
2018-12-06T22:13:05.478Z,3.05
2018-12-06T22:15:32.169Z,6.08
2018-12-06T22:17:59.012Z,18.48
2018-12-06T22:20:25.661Z,26.90
2018-12-06T22:23:01.219Z,41.88
2018-12-06T22:25:28.044Z,82.55
2018-12-06T22:27:54.696Z,50.17
2018-12-06T22:30:21.380Z,40.52
2018-12-06T22:32:48.061Z,12.50
2018-12-06T22:35:14.706Z,8.35
2018-12-06T22:37:41.423Z,16.62
2018-12-06T22:40:09.020Z,16.65
2018-12-06T22:42:35.670Z,16.05
2018-12-06T22:48:12.698Z,10.30
2018-12-06T22:50:39.444Z,7.45
2018-12-06T22:53:06.216Z,4.60
2018-12-06T22:55:32.940Z,3.70
2018-12-06T22:57:59.688Z,2.70
2018-12-06T23:00:29.456Z,1.87
2018-12-06T23:02:56.121Z,2.75
2018-12-06T23:05:22.796Z,2.35
2018-12-06T23:07:49.480Z,1.30
2018-12-06T23:10:16.141Z,1.65
2018-12-06T23:12:42.842Z,2.00
2018-12-06T23:15:09.681Z,0.82
2018-12-06T23:17:36.322Z,1.77
2018-12-06T23:20:04.888Z,0.93
2018-12-06T23:22:31.568Z,0.80
2018-12-06T23:24:58.237Z,0.80
2018-12-06T23:27:24.919Z,1.32
2018-12-06T23:29:51.598Z,1.30
2018-12-06T23:32:18.248Z,1.10
2018-12-06T23:34:45.089Z,1.45
2018-12-06T23:37:18.756Z,1.00
2018-12-06T23:39:45.571Z,0.85
2018-12-06T23:42:12.257Z,1.20
2018-12-06T23:44:38.911Z,1.07
2018-12-06T23:47:05.784Z,0.90
2018-12-06T23:49:32.461Z,1.15
2018-12-06T23:51:59.089Z,1.10
2018-12-06T23:54:25.777Z,1.40
2018-12-06T23:56:52.604Z,2.65
2018-12-06T23:59:19.315Z,3.30
